sensor_id;sensor_type;location;lat;lon;timestamp;temperature;humidity
22145;DHT22;11238;48.730;11.566;2022-12-08T00:01:06;2.20;99.90
22145;DHT22;11238;48.730;11.566;2022-12-08T00:03:33;2.20;99.90
22145;DHT22;11238;48.730;11.566;2022-12-08T00:06:01;2.10;99.90
22145;DHT22;11238;48.730;11.566;2022-12-08T00:08:45;2.10;99.90
22145;DHT22;11238;48.730;11.566;2022-12-08T00:11:30;2.10;99.90
22145;DHT22;11238;48.730;11.566;2022-12-08T00:13:56;2.00;99.90
22145;DHT22;11238;48.730;11.566;2022-12-08T00:16:22;1.80;99.90
22145;DHT22;11238;48.730;11.566;2022-12-08T00:18:47;1.60;99.90
22145;DHT22;11238;48.730;11.566;2022-12-08T00:21:14;1.50;99.90
22145;DHT22;11238;48.730;11.566;2022-12-08T00:23:40;1.50;99.90
22145;DHT22;11238;48.730;11.566;2022-12-08T00:26:06;1.40;99.90
22145;DHT22;11238;48.730;11.566;2022-12-08T00:28:32;1.40;99.90
22145;DHT22;11238;48.730;11.566;2022-12-08T00:30:59;1.20;99.90
22145;DHT22;11238;48.730;11.566;2022-12-08T00:33:26;1.20;99.90
22145;DHT22;11238;48.730;11.566;2022-12-08T00:35:52;1.00;99.90
22145;DHT22;11238;48.730;11.566;2022-12-08T00:38:19;1.00;99.90
22145;DHT22;11238;48.730;11.566;2022-12-08T00:40:47;1.00;99.90
22145;DHT22;11238;48.730;11.566;2022-12-08T00:43:13;1.10;99.90
22145;DHT22;11238;48.730;11.566;2022-12-08T00:45:39;1.00;99.90
22145;DHT22;11238;48.730;11.566;2022-12-08T00:48:05;1.00;99.90
22145;DHT22;11238;48.730;11.566;2022-12-08T00:50:32;1.10;99.90
22145;DHT22;11238;48.730;11.566;2022-12-08T00:52:58;1.10;99.90
22145;DHT22;11238;48.730;11.566;2022-12-08T00:55:23;1.00;99.90
22145;DHT22;11238;48.730;11.566;2022-12-08T00:57:49;1.10;99.90
22145;DHT22;11238;48.730;11.566;2022-12-08T01:00:15;1.00;99.90
22145;DHT22;11238;48.730;11.566;2022-12-08T01:02:41;1.00;99.90
22145;DHT22;11238;48.730;11.566;2022-12-08T01:05:07;1.00;99.90
22145;DHT22;11238;48.730;11.566;2022-12-08T01:07:33;0.90;99.90
22145;DHT22;11238;48.730;11.566;2022-12-08T01:09:59;0.90;99.90
22145;DHT22;11238;48.730;11.566;2022-12-08T01:12:27;0.80;99.90
22145;DHT22;11238;48.730;11.566;2022-12-08T01:14:53;0.70;99.90
22145;DHT22;11238;48.730;11.566;2022-12-08T01:17:19;0.60;99.90
22145;DHT22;11238;48.730;11.566;2022-12-08T01:19:44;0.60;99.90
22145;DHT22;11238;48.730;11.566;2022-12-08T01:22:11;0.60;99.90
22145;DHT22;11238;48.730;11.566;2022-12-08T01:24:37;0.50;99.90
22145;DHT22;11238;48.730;11.566;2022-12-08T01:27:04;0.50;99.90
22145;DHT22;11238;48.730;11.566;2022-12-08T01:29:30;0.50;99.90
22145;DHT22;11238;48.730;11.566;2022-12-08T01:31:56;0.50;99.90
22145;DHT22;11238;48.730;11.566;2022-12-08T01:34:21;0.50;99.90
22145;DHT22;11238;48.730;11.566;2022-12-08T01:36:47;0.40;99.90
22145;DHT22;11238;48.730;11.566;2022-12-08T01:39:15;0.20;99.90
22145;DHT22;11238;48.730;11.566;2022-12-08T01:41:42;0.20;99.90
22145;DHT22;11238;48.730;11.566;2022-12-08T01:46:42;0.10;99.90
22145;DHT22;11238;48.730;11.566;2022-12-08T01:51:54;0.10;99.90
22145;DHT22;11238;48.730;11.566;2022-12-08T01:54:25;0.10;99.90
22145;DHT22;11238;48.730;11.566;2022-12-08T01:57:07;0.20;99.90
22145;DHT22;11238;48.730;11.566;2022-12-08T01:59:40;0.20;99.90
22145;DHT22;11238;48.730;11.566;2022-12-08T02:02:09;0.20;99.90
22145;DHT22;11238;48.730;11.566;2022-12-08T02:04:35;0.30;99.90
22145;DHT22;11238;48.730;11.566;2022-12-08T02:07:02;0.30;99.90
22145;DHT22;11238;48.730;11.566;2022-12-08T02:09:28;0.30;99.90
22145;DHT22;11238;48.730;11.566;2022-12-08T02:11:56;0.30;99.90
22145;DHT22;11238;48.730;11.566;2022-12-08T02:14:23;0.30;99.90
22145;DHT22;11238;48.730;11.566;2022-12-08T02:17:09;0.30;99.90
22145;DHT22;11238;48.730;11.566;2022-12-08T02:23:00;0.40;99.90
22145;DHT22;11238;48.730;11.566;2022-12-08T02:25:43;0.30;99.90
22145;DHT22;11238;48.730;11.566;2022-12-08T02:34:00;0.30;99.90
22145;DHT22;11238;48.730;11.566;2022-12-08T02:39:20;0.40;99.90
22145;DHT22;11238;48.730;11.566;2022-12-08T02:44:45;0.40;99.90
22145;DHT22;11238;48.730;11.566;2022-12-08T02:47:16;0.50;99.90
22145;DHT22;11238;48.730;11.566;2022-12-08T02:49:43;0.40;99.90
22145;DHT22;11238;48.730;11.566;2022-12-08T02:54:48;0.40;99.90
22145;DHT22;11238;48.730;11.566;2022-12-08T03:00:17;0.40;99.90
22145;DHT22;11238;48.730;11.566;2022-12-08T03:13:42;0.30;99.90
22145;DHT22;11238;48.730;11.566;2022-12-08T03:16:14;0.20;99.90
22145;DHT22;11238;48.730;11.566;2022-12-08T03:18:46;0.20;99.90
22145;DHT22;11238;48.730;11.566;2022-12-08T03:21:14;0.30;99.90
22145;DHT22;11238;48.730;11.566;2022-12-08T03:23:43;0.30;99.90
22145;DHT22;11238;48.730;11.566;2022-12-08T03:26:18;0.30;99.90
22145;DHT22;11238;48.730;11.566;2022-12-08T03:28:47;0.40;99.90
22145;DHT22;11238;48.730;11.566;2022-12-08T03:31:14;0.30;99.90
22145;DHT22;11238;48.730;11.566;2022-12-08T03:33:44;0.30;99.90
22145;DHT22;11238;48.730;11.566;2022-12-08T03:36:10;0.20;99.90
22145;DHT22;11238;48.730;11.566;2022-12-08T03:38:42;0.20;99.90
22145;DHT22;11238;48.730;11.566;2022-12-08T03:41:11;0.20;99.90
22145;DHT22;11238;48.730;11.566;2022-12-08T03:43:54;0.30;99.90
22145;DHT22;11238;48.730;11.566;2022-12-08T03:46:24;0.30;99.90
22145;DHT22;11238;48.730;11.566;2022-12-08T03:48:51;0.10;99.90
22145;DHT22;11238;48.730;11.566;2022-12-08T03:51:17;0.20;99.90
22145;DHT22;11238;48.730;11.566;2022-12-08T03:53:43;0.20;99.90
22145;DHT22;11238;48.730;11.566;2022-12-08T03:56:22;0.20;99.90
22145;DHT22;11238;48.730;11.566;2022-12-08T03:58:49;0.20;99.90
22145;DHT22;11238;48.730;11.566;2022-12-08T04:01:15;0.20;99.90
22145;DHT22;11238;48.730;11.566;2022-12-08T04:03:41;0.10;99.90
22145;DHT22;11238;48.730;11.566;2022-12-08T04:06:07;0.10;99.90
22145;DHT22;11238;48.730;11.566;2022-12-08T04:08:33;0.10;99.90
22145;DHT22;11238;48.730;11.566;2022-12-08T04:10:59;0.10;99.90
22145;DHT22;11238;48.730;11.566;2022-12-08T04:13:24;0.10;99.90
22145;DHT22;11238;48.730;11.566;2022-12-08T04:15:50;0.20;99.90
22145;DHT22;11238;48.730;11.566;2022-12-08T04:18:17;0.20;99.90
22145;DHT22;11238;48.730;11.566;2022-12-08T04:20:43;0.20;99.90
22145;DHT22;11238;48.730;11.566;2022-12-08T04:23:10;0.20;99.90
22145;DHT22;11238;48.730;11.566;2022-12-08T04:25:36;0.10;99.90
22145;DHT22;11238;48.730;11.566;2022-12-08T04:28:03;0.10;99.90
22145;DHT22;11238;48.730;11.566;2022-12-08T04:30:30;0.10;99.90
22145;DHT22;11238;48.730;11.566;2022-12-08T04:32:56;0.10;99.90
22145;DHT22;11238;48.730;11.566;2022-12-08T04:35:22;0.20;99.90
22145;DHT22;11238;48.730;11.566;2022-12-08T04:37:48;0.20;99.90
22145;DHT22;11238;48.730;11.566;2022-12-08T04:40:14;0.20;99.90
22145;DHT22;11238;48.730;11.566;2022-12-08T04:42:41;0.20;99.90
22145;DHT22;11238;48.730;11.566;2022-12-08T04:45:07;0.20;99.90
22145;DHT22;11238;48.730;11.566;2022-12-08T04:47:33;0.20;99.90
22145;DHT22;11238;48.730;11.566;2022-12-08T04:49:59;0.10;99.90
22145;DHT22;11238;48.730;11.566;2022-12-08T04:52:25;0.10;99.90
22145;DHT22;11238;48.730;11.566;2022-12-08T04:54:51;0.10;99.90
22145;DHT22;11238;48.730;11.566;2022-12-08T04:57:17;0.10;99.90
22145;DHT22;11238;48.730;11.566;2022-12-08T04:59:42;0.10;99.90
22145;DHT22;11238;48.730;11.566;2022-12-08T05:02:08;0.10;99.90
22145;DHT22;11238;48.730;11.566;2022-12-08T05:04:34;0.10;99.90
22145;DHT22;11238;48.730;11.566;2022-12-08T05:07:00;0.10;99.90
22145;DHT22;11238;48.730;11.566;2022-12-08T05:09:26;0.10;99.90
22145;DHT22;11238;48.730;11.566;2022-12-08T05:11:53;0.10;99.90
22145;DHT22;11238;48.730;11.566;2022-12-08T05:14:19;0.00;99.90
22145;DHT22;11238;48.730;11.566;2022-12-08T05:16:45;0.00;99.90
22145;DHT22;11238;48.730;11.566;2022-12-08T05:19:11;0.00;99.90
22145;DHT22;11238;48.730;11.566;2022-12-08T05:21:38;0.00;99.90
22145;DHT22;11238;48.730;11.566;2022-12-08T05:24:04;0.00;99.90
22145;DHT22;11238;48.730;11.566;2022-12-08T05:26:30;0.00;99.90
22145;DHT22;11238;48.730;11.566;2022-12-08T05:28:56;0.00;99.90
22145;DHT22;11238;48.730;11.566;2022-12-08T05:31:22;0.00;99.90
22145;DHT22;11238;48.730;11.566;2022-12-08T05:33:49;0.10;99.90
22145;DHT22;11238;48.730;11.566;2022-12-08T05:36:16;0.10;99.90
22145;DHT22;11238;48.730;11.566;2022-12-08T05:38:43;0.10;99.90
22145;DHT22;11238;48.730;11.566;2022-12-08T05:41:13;0.00;99.90
22145;DHT22;11238;48.730;11.566;2022-12-08T05:43:39;0.00;99.90
22145;DHT22;11238;48.730;11.566;2022-12-08T05:46:06;-0.10;99.90
22145;DHT22;11238;48.730;11.566;2022-12-08T05:48:33;-0.10;99.90
22145;DHT22;11238;48.730;11.566;2022-12-08T05:50:59;-0.10;99.90
22145;DHT22;11238;48.730;11.566;2022-12-08T05:53:26;-0.10;99.90
22145;DHT22;11238;48.730;11.566;2022-12-08T05:55:52;-0.10;99.90
22145;DHT22;11238;48.730;11.566;2022-12-08T05:58:20;-0.20;99.90
22145;DHT22;11238;48.730;11.566;2022-12-08T06:00:47;-0.30;99.90
22145;DHT22;11238;48.730;11.566;2022-12-08T06:03:15;-0.40;99.90
22145;DHT22;11238;48.730;11.566;2022-12-08T06:05:41;-0.30;99.90
22145;DHT22;11238;48.730;11.566;2022-12-08T06:08:08;-0.40;99.90
22145;DHT22;11238;48.730;11.566;2022-12-08T06:10:34;-0.40;99.90
22145;DHT22;11238;48.730;11.566;2022-12-08T06:13:01;-0.40;99.90
22145;DHT22;11238;48.730;11.566;2022-12-08T06:15:28;-0.50;99.90
22145;DHT22;11238;48.730;11.566;2022-12-08T06:17:54;-0.50;99.90
22145;DHT22;11238;48.730;11.566;2022-12-08T06:20:20;-0.60;99.90
22145;DHT22;11238;48.730;11.566;2022-12-08T06:22:46;-0.70;99.90
22145;DHT22;11238;48.730;11.566;2022-12-08T06:25:11;-0.60;99.90
22145;DHT22;11238;48.730;11.566;2022-12-08T06:27:37;-0.50;99.90
22145;DHT22;11238;48.730;11.566;2022-12-08T06:30:03;-0.50;99.90
22145;DHT22;11238;48.730;11.566;2022-12-08T06:32:29;-0.50;99.90
22145;DHT22;11238;48.730;11.566;2022-12-08T06:34:55;-0.50;99.90
22145;DHT22;11238;48.730;11.566;2022-12-08T06:37:22;-0.50;99.90
22145;DHT22;11238;48.730;11.566;2022-12-08T06:39:48;-0.50;99.90
22145;DHT22;11238;48.730;11.566;2022-12-08T06:42:13;-0.60;99.90
22145;DHT22;11238;48.730;11.566;2022-12-08T06:44:59;-0.70;99.90
22145;DHT22;11238;48.730;11.566;2022-12-08T06:47:24;-0.80;99.90
22145;DHT22;11238;48.730;11.566;2022-12-08T06:49:50;-0.70;99.90
22145;DHT22;11238;48.730;11.566;2022-12-08T06:52:16;-0.70;99.90
22145;DHT22;11238;48.730;11.566;2022-12-08T06:54:42;-0.70;99.90
22145;DHT22;11238;48.730;11.566;2022-12-08T06:57:08;-0.70;99.90
22145;DHT22;11238;48.730;11.566;2022-12-08T06:59:33;-0.70;99.90
22145;DHT22;11238;48.730;11.566;2022-12-08T07:01:59;-0.70;99.90
22145;DHT22;11238;48.730;11.566;2022-12-08T07:04:25;-0.60;99.90
22145;DHT22;11238;48.730;11.566;2022-12-08T07:06:51;-0.70;99.90
22145;DHT22;11238;48.730;11.566;2022-12-08T07:09:17;-0.60;99.90
22145;DHT22;11238;48.730;11.566;2022-12-08T07:11:43;-0.60;99.90
22145;DHT22;11238;48.730;11.566;2022-12-08T07:14:08;-0.60;99.90
22145;DHT22;11238;48.730;11.566;2022-12-08T07:16:35;-0.60;99.90
22145;DHT22;11238;48.730;11.566;2022-12-08T07:19:01;-0.60;99.90
22145;DHT22;11238;48.730;11.566;2022-12-08T07:21:27;-0.50;99.90
22145;DHT22;11238;48.730;11.566;2022-12-08T07:23:53;-0.50;99.90
22145;DHT22;11238;48.730;11.566;2022-12-08T07:26:19;-0.50;99.90
22145;DHT22;11238;48.730;11.566;2022-12-08T07:28:45;-0.50;99.90
22145;DHT22;11238;48.730;11.566;2022-12-08T07:31:22;-0.50;99.90
22145;DHT22;11238;48.730;11.566;2022-12-08T07:33:50;-0.50;99.90
22145;DHT22;11238;48.730;11.566;2022-12-08T07:36:16;-0.50;99.90
22145;DHT22;11238;48.730;11.566;2022-12-08T07:38:42;-0.50;99.90
22145;DHT22;11238;48.730;11.566;2022-12-08T07:41:17;-0.50;99.90
22145;DHT22;11238;48.730;11.566;2022-12-08T07:43:43;-0.50;99.90
22145;DHT22;11238;48.730;11.566;2022-12-08T07:46:14;-0.60;99.90
22145;DHT22;11238;48.730;11.566;2022-12-08T07:48:40;-0.90;99.90
22145;DHT22;11238;48.730;11.566;2022-12-08T07:51:06;-0.80;99.90
22145;DHT22;11238;48.730;11.566;2022-12-08T07:53:33;-0.80;99.90
22145;DHT22;11238;48.730;11.566;2022-12-08T07:55:59;-0.90;99.90
22145;DHT22;11238;48.730;11.566;2022-12-08T07:58:25;-0.90;99.90
22145;DHT22;11238;48.730;11.566;2022-12-08T08:00:52;-0.80;99.90
22145;DHT22;11238;48.730;11.566;2022-12-08T08:03:17;-0.70;99.90
22145;DHT22;11238;48.730;11.566;2022-12-08T08:05:44;-0.90;99.90
22145;DHT22;11238;48.730;11.566;2022-12-08T08:08:12;-0.80;99.90
22145;DHT22;11238;48.730;11.566;2022-12-08T08:10:38;-0.90;99.90
22145;DHT22;11238;48.730;11.566;2022-12-08T08:13:03;-0.90;99.90
22145;DHT22;11238;48.730;11.566;2022-12-08T08:15:29;-1.00;99.90
22145;DHT22;11238;48.730;11.566;2022-12-08T08:17:55;-1.00;99.90
22145;DHT22;11238;48.730;11.566;2022-12-08T08:20:21;-1.00;99.90
22145;DHT22;11238;48.730;11.566;2022-12-08T08:22:49;-1.20;99.90
22145;DHT22;11238;48.730;11.566;2022-12-08T08:25:17;-1.30;99.90
22145;DHT22;11238;48.730;11.566;2022-12-08T08:27:43;-1.20;99.90
22145;DHT22;11238;48.730;11.566;2022-12-08T08:30:10;-1.20;99.90
22145;DHT22;11238;48.730;11.566;2022-12-08T08:32:37;-1.20;99.90
22145;DHT22;11238;48.730;11.566;2022-12-08T08:35:03;-1.30;99.90
22145;DHT22;11238;48.730;11.566;2022-12-08T08:37:30;-1.30;99.90
22145;DHT22;11238;48.730;11.566;2022-12-08T08:39:56;-1.30;99.90
22145;DHT22;11238;48.730;11.566;2022-12-08T08:42:22;-1.30;99.90
22145;DHT22;11238;48.730;11.566;2022-12-08T08:44:48;-1.30;99.90
22145;DHT22;11238;48.730;11.566;2022-12-08T08:47:14;-1.30;99.90
22145;DHT22;11238;48.730;11.566;2022-12-08T08:49:40;-1.20;99.90
22145;DHT22;11238;48.730;11.566;2022-12-08T08:52:06;-1.20;99.90
22145;DHT22;11238;48.730;11.566;2022-12-08T08:54:32;-1.10;99.90
22145;DHT22;11238;48.730;11.566;2022-12-08T08:56:59;-1.10;99.90
22145;DHT22;11238;48.730;11.566;2022-12-08T08:59:26;-1.10;99.90
22145;DHT22;11238;48.730;11.566;2022-12-08T09:01:53;-1.00;99.90
22145;DHT22;11238;48.730;11.566;2022-12-08T09:04:20;-1.10;99.90
22145;DHT22;11238;48.730;11.566;2022-12-08T09:06:46;-1.00;99.90
22145;DHT22;11238;48.730;11.566;2022-12-08T09:09:13;-1.00;99.90
22145;DHT22;11238;48.730;11.566;2022-12-08T09:11:39;-1.00;99.90
22145;DHT22;11238;48.730;11.566;2022-12-08T09:14:05;-1.00;99.90
22145;DHT22;11238;48.730;11.566;2022-12-08T09:16:31;-1.00;99.90
22145;DHT22;11238;48.730;11.566;2022-12-08T09:18:57;-1.00;99.90
22145;DHT22;11238;48.730;11.566;2022-12-08T09:21:24;-0.90;99.90
22145;DHT22;11238;48.730;11.566;2022-12-08T09:23:57;-1.00;99.90
22145;DHT22;11238;48.730;11.566;2022-12-08T09:26:24;-1.10;99.90
22145;DHT22;11238;48.730;11.566;2022-12-08T09:28:51;-0.90;99.90
22145;DHT22;11238;48.730;11.566;2022-12-08T09:31:19;-0.90;99.90
22145;DHT22;11238;48.730;11.566;2022-12-08T09:33:45;-0.90;99.90
22145;DHT22;11238;48.730;11.566;2022-12-08T09:36:12;-0.90;99.90
22145;DHT22;11238;48.730;11.566;2022-12-08T09:38:39;-0.90;99.90
22145;DHT22;11238;48.730;11.566;2022-12-08T09:41:36;-1.00;99.90
22145;DHT22;11238;48.730;11.566;2022-12-08T09:46:46;-1.00;99.90
22145;DHT22;11238;48.730;11.566;2022-12-08T09:49:17;-1.00;99.90
22145;DHT22;11238;48.730;11.566;2022-12-08T09:51:45;-0.90;99.90
22145;DHT22;11238;48.730;11.566;2022-12-08T09:54:17;-0.80;99.90
22145;DHT22;11238;48.730;11.566;2022-12-08T09:56:46;-0.60;99.90
22145;DHT22;11238;48.730;11.566;2022-12-08T09:59:32;-0.50;99.90
22145;DHT22;11238;48.730;11.566;2022-12-08T10:02:00;-0.40;99.90
22145;DHT22;11238;48.730;11.566;2022-12-08T10:04:37;-0.30;99.90
22145;DHT22;11238;48.730;11.566;2022-12-08T10:07:38;-0.50;99.90
22145;DHT22;11238;48.730;11.566;2022-12-08T10:10:21;-0.40;99.90
22145;DHT22;11238;48.730;11.566;2022-12-08T10:15:40;-0.30;99.90
22145;DHT22;11238;48.730;11.566;2022-12-08T10:18:24;-0.20;99.90
22145;DHT22;11238;48.730;11.566;2022-12-08T10:20:50;0.00;99.90
22145;DHT22;11238;48.730;11.566;2022-12-08T10:23:36;0.00;99.90
22145;DHT22;11238;48.730;11.566;2022-12-08T10:26:07;0.00;99.90
22145;DHT22;11238;48.730;11.566;2022-12-08T10:28:35;0.10;99.90
22145;DHT22;11238;48.730;11.566;2022-12-08T10:31:01;0.10;99.90
22145;DHT22;11238;48.730;11.566;2022-12-08T10:33:27;-0.20;99.90
22145;DHT22;11238;48.730;11.566;2022-12-08T10:35:55;-0.20;99.90
22145;DHT22;11238;48.730;11.566;2022-12-08T10:38:32;-0.10;99.90
22145;DHT22;11238;48.730;11.566;2022-12-08T10:41:14;-0.20;99.90
22145;DHT22;11238;48.730;11.566;2022-12-08T10:43:47;-0.20;99.90
22145;DHT22;11238;48.730;11.566;2022-12-08T10:46:18;-0.10;99.90
22145;DHT22;11238;48.730;11.566;2022-12-08T10:51:41;0.20;99.90
22145;DHT22;11238;48.730;11.566;2022-12-08T10:54:27;0.20;99.90
22145;DHT22;11238;48.730;11.566;2022-12-08T10:57:20;0.30;99.90
22145;DHT22;11238;48.730;11.566;2022-12-08T10:59:47;0.40;99.90
22145;DHT22;11238;48.730;11.566;2022-12-08T11:02:21;0.30;99.90
22145;DHT22;11238;48.730;11.566;2022-12-08T11:04:55;0.30;99.90
22145;DHT22;11238;48.730;11.566;2022-12-08T11:07:23;0.40;99.90
22145;DHT22;11238;48.730;11.566;2022-12-08T11:09:55;0.40;99.90
22145;DHT22;11238;48.730;11.566;2022-12-08T11:12:25;0.50;99.90
22145;DHT22;11238;48.730;11.566;2022-12-08T11:14:58;0.50;99.90
22145;DHT22;11238;48.730;11.566;2022-12-08T11:17:34;0.60;99.90
22145;DHT22;11238;48.730;11.566;2022-12-08T11:22:43;0.50;99.90
22145;DHT22;11238;48.730;11.566;2022-12-08T11:25:21;0.60;99.90
22145;DHT22;11238;48.730;11.566;2022-12-08T11:27:50;0.50;99.90
22145;DHT22;11238;48.730;11.566;2022-12-08T11:30:26;0.50;99.90
22145;DHT22;11238;48.730;11.566;2022-12-08T11:33:00;0.60;99.90
22145;DHT22;11238;48.730;11.566;2022-12-08T11:35:34;0.70;99.90
22145;DHT22;11238;48.730;11.566;2022-12-08T11:38:11;0.80;99.90
22145;DHT22;11238;48.730;11.566;2022-12-08T11:40:40;0.80;99.90
22145;DHT22;11238;48.730;11.566;2022-12-08T11:46:24;0.90;99.90
22145;DHT22;11238;48.730;11.566;2022-12-08T11:49:04;0.80;99.90
22145;DHT22;11238;48.730;11.566;2022-12-08T11:51:43;0.70;99.90
22145;DHT22;11238;48.730;11.566;2022-12-08T11:54:23;0.80;99.90
22145;DHT22;11238;48.730;11.566;2022-12-08T11:56:58;0.90;99.90
22145;DHT22;11238;48.730;11.566;2022-12-08T11:59:31;1.00;99.90
22145;DHT22;11238;48.730;11.566;2022-12-08T12:02:00;0.90;99.90
22145;DHT22;11238;48.730;11.566;2022-12-08T12:04:58;1.00;99.90
22145;DHT22;11238;48.730;11.566;2022-12-08T12:13:21;1.00;99.90
22145;DHT22;11238;48.730;11.566;2022-12-08T12:19:09;1.10;99.90
22145;DHT22;11238;48.730;11.566;2022-12-08T12:21:40;1.20;99.90
22145;DHT22;11238;48.730;11.566;2022-12-08T12:24:16;1.20;99.90
22145;DHT22;11238;48.730;11.566;2022-12-08T12:26:56;1.30;99.90
22145;DHT22;11238;48.730;11.566;2022-12-08T12:29:29;1.20;99.90
22145;DHT22;11238;48.730;11.566;2022-12-08T12:31:59;1.30;99.90
22145;DHT22;11238;48.730;11.566;2022-12-08T12:34:33;1.30;99.90
22145;DHT22;11238;48.730;11.566;2022-12-08T12:37:07;1.40;99.90
22145;DHT22;11238;48.730;11.566;2022-12-08T12:40:04;1.30;99.90
22145;DHT22;11238;48.730;11.566;2022-12-08T12:42:41;1.40;99.90
22145;DHT22;11238;48.730;11.566;2022-12-08T12:47:49;1.40;99.90
22145;DHT22;11238;48.730;11.566;2022-12-08T12:53:05;1.20;99.90
22145;DHT22;11238;48.730;11.566;2022-12-08T12:55:57;1.10;99.90
22145;DHT22;11238;48.730;11.566;2022-12-08T13:03:42;1.00;99.90
22145;DHT22;11238;48.730;11.566;2022-12-08T13:06:10;1.00;99.90
22145;DHT22;11238;48.730;11.566;2022-12-08T13:08:40;0.90;99.90
22145;DHT22;11238;48.730;11.566;2022-12-08T13:11:13;0.80;99.90
22145;DHT22;11238;48.730;11.566;2022-12-08T13:14:00;1.00;99.90
22145;DHT22;11238;48.730;11.566;2022-12-08T13:16:33;1.00;99.90
22145;DHT22;11238;48.730;11.566;2022-12-08T13:19:04;1.00;99.90
22145;DHT22;11238;48.730;11.566;2022-12-08T13:21:37;1.00;99.90
22145;DHT22;11238;48.730;11.566;2022-12-08T13:26:46;1.10;99.90
22145;DHT22;11238;48.730;11.566;2022-12-08T13:29:20;1.10;99.90
22145;DHT22;11238;48.730;11.566;2022-12-08T13:32:00;1.10;99.90
22145;DHT22;11238;48.730;11.566;2022-12-08T13:44:52;1.30;99.90
22145;DHT22;11238;48.730;11.566;2022-12-08T13:47:24;1.30;99.90
22145;DHT22;11238;48.730;11.566;2022-12-08T13:50:03;1.30;99.90
22145;DHT22;11238;48.730;11.566;2022-12-08T13:55:19;1.30;99.90
22145;DHT22;11238;48.730;11.566;2022-12-08T13:57:50;1.30;99.90
22145;DHT22;11238;48.730;11.566;2022-12-08T14:00:19;1.30;99.90
22145;DHT22;11238;48.730;11.566;2022-12-08T14:02:47;1.40;99.90
22145;DHT22;11238;48.730;11.566;2022-12-08T14:05:14;1.40;99.90
22145;DHT22;11238;48.730;11.566;2022-12-08T14:07:41;1.40;99.90
22145;DHT22;11238;48.730;11.566;2022-12-08T14:10:17;1.50;99.90
22145;DHT22;11238;48.730;11.566;2022-12-08T14:12:46;1.50;99.90
22145;DHT22;11238;48.730;11.566;2022-12-08T14:15:14;1.40;99.90
22145;DHT22;11238;48.730;11.566;2022-12-08T14:17:43;1.40;99.90
22145;DHT22;11238;48.730;11.566;2022-12-08T14:20:25;1.40;99.90
22145;DHT22;11238;48.730;11.566;2022-12-08T14:22:52;1.50;99.90
22145;DHT22;11238;48.730;11.566;2022-12-08T14:25:19;1.50;99.90
22145;DHT22;11238;48.730;11.566;2022-12-08T14:27:46;1.50;99.90
22145;DHT22;11238;48.730;11.566;2022-12-08T14:30:24;1.40;99.90
22145;DHT22;11238;48.730;11.566;2022-12-08T14:32:56;1.50;99.90
22145;DHT22;11238;48.730;11.566;2022-12-08T14:35:31;1.50;99.90
22145;DHT22;11238;48.730;11.566;2022-12-08T14:37:59;1.50;99.90
22145;DHT22;11238;48.730;11.566;2022-12-08T14:41:04;1.50;99.90
22145;DHT22;11238;48.730;11.566;2022-12-08T14:43:31;1.50;99.90
22145;DHT22;11238;48.730;11.566;2022-12-08T14:46:18;1.50;99.90
22145;DHT22;11238;48.730;11.566;2022-12-08T14:48:44;1.50;99.90
22145;DHT22;11238;48.730;11.566;2022-12-08T14:54:03;1.50;99.90
22145;DHT22;11238;48.730;11.566;2022-12-08T14:56:39;1.50;99.90
22145;DHT22;11238;48.730;11.566;2022-12-08T14:59:18;1.40;99.90
22145;DHT22;11238;48.730;11.566;2022-12-08T15:01:47;1.50;99.90
22145;DHT22;11238;48.730;11.566;2022-12-08T15:04:18;1.50;99.90
22145;DHT22;11238;48.730;11.566;2022-12-08T15:06:49;1.50;99.90
22145;DHT22;11238;48.730;11.566;2022-12-08T15:09:29;1.50;99.90
22145;DHT22;11238;48.730;11.566;2022-12-08T15:14:39;1.50;99.90
22145;DHT22;11238;48.730;11.566;2022-12-08T15:17:36;1.50;99.90
22145;DHT22;11238;48.730;11.566;2022-12-08T15:20:23;1.50;99.90
22145;DHT22;11238;48.730;11.566;2022-12-08T15:22:50;1.50;99.90
22145;DHT22;11238;48.730;11.566;2022-12-08T15:25:16;1.50;99.90
22145;DHT22;11238;48.730;11.566;2022-12-08T15:27:42;1.50;99.90
22145;DHT22;11238;48.730;11.566;2022-12-08T15:30:15;1.50;99.90
22145;DHT22;11238;48.730;11.566;2022-12-08T15:32:42;1.50;99.90
22145;DHT22;11238;48.730;11.566;2022-12-08T15:35:13;1.50;99.90
22145;DHT22;11238;48.730;11.566;2022-12-08T15:37:39;1.60;99.90
22145;DHT22;11238;48.730;11.566;2022-12-08T15:40:06;1.50;99.90
22145;DHT22;11238;48.730;11.566;2022-12-08T15:42:32;1.50;99.90
22145;DHT22;11238;48.730;11.566;2022-12-08T15:44:57;1.50;99.90
22145;DHT22;11238;48.730;11.566;2022-12-08T15:47:23;1.50;99.90
22145;DHT22;11238;48.730;11.566;2022-12-08T15:49:51;1.50;99.90
22145;DHT22;11238;48.730;11.566;2022-12-08T15:52:22;1.50;99.90
22145;DHT22;11238;48.730;11.566;2022-12-08T15:54:48;1.50;99.90
22145;DHT22;11238;48.730;11.566;2022-12-08T15:57:23;1.50;99.90
22145;DHT22;11238;48.730;11.566;2022-12-08T15:59:51;1.50;99.90
22145;DHT22;11238;48.730;11.566;2022-12-08T16:02:17;1.50;99.90
22145;DHT22;11238;48.730;11.566;2022-12-08T16:04:45;1.50;99.90
22145;DHT22;11238;48.730;11.566;2022-12-08T16:07:26;1.50;99.90
22145;DHT22;11238;48.730;11.566;2022-12-08T16:09:52;1.50;99.90
22145;DHT22;11238;48.730;11.566;2022-12-08T16:12:20;1.50;99.90
22145;DHT22;11238;48.730;11.566;2022-12-08T16:15:04;1.40;99.90
22145;DHT22;11238;48.730;11.566;2022-12-08T16:17:31;1.40;99.90
22145;DHT22;11238;48.730;11.566;2022-12-08T16:19:57;1.40;99.90
22145;DHT22;11238;48.730;11.566;2022-12-08T16:22:28;1.40;99.90
22145;DHT22;11238;48.730;11.566;2022-12-08T16:24:55;1.30;99.90
22145;DHT22;11238;48.730;11.566;2022-12-08T16:27:27;1.40;99.90
22145;DHT22;11238;48.730;11.566;2022-12-08T16:29:54;1.40;99.90
22145;DHT22;11238;48.730;11.566;2022-12-08T16:32:21;1.40;99.90
22145;DHT22;11238;48.730;11.566;2022-12-08T16:34:47;1.40;99.90
22145;DHT22;11238;48.730;11.566;2022-12-08T16:37:18;1.40;99.90
22145;DHT22;11238;48.730;11.566;2022-12-08T16:39:44;1.50;99.90
22145;DHT22;11238;48.730;11.566;2022-12-08T16:42:21;1.50;99.90
22145;DHT22;11238;48.730;11.566;2022-12-08T16:47:38;1.40;99.90
22145;DHT22;11238;48.730;11.566;2022-12-08T16:50:17;1.50;99.90
22145;DHT22;11238;48.730;11.566;2022-12-08T16:52:44;1.40;99.90
22145;DHT22;11238;48.730;11.566;2022-12-08T16:55:18;1.50;99.90
22145;DHT22;11238;48.730;11.566;2022-12-08T16:57:44;1.50;99.90
22145;DHT22;11238;48.730;11.566;2022-12-08T17:00:14;1.40;99.90
22145;DHT22;11238;48.730;11.566;2022-12-08T17:02:41;1.40;99.90
22145;DHT22;11238;48.730;11.566;2022-12-08T17:05:07;1.40;99.90
22145;DHT22;11238;48.730;11.566;2022-12-08T17:07:34;1.40;99.90
22145;DHT22;11238;48.730;11.566;2022-12-08T17:10:08;1.40;99.90
22145;DHT22;11238;48.730;11.566;2022-12-08T17:12:34;1.40;99.90
22145;DHT22;11238;48.730;11.566;2022-12-08T17:15:04;1.40;99.90
22145;DHT22;11238;48.730;11.566;2022-12-08T17:17:31;1.40;99.90